sensor_id;sensor_type;location;lat;lon;timestamp;P1;durP1;ratioP1;P2;durP2;ratioP2
63346;SDS011;49472;49.880;8.650;2024-03-08T00:02:02;40.00;;;35.60;;
63346;SDS011;49472;49.880;8.650;2024-03-08T00:04:28;40.33;;;35.50;;
63346;SDS011;49472;49.880;8.650;2024-03-08T00:06:53;39.50;;;35.23;;
63346;SDS011;49472;49.880;8.650;2024-03-08T00:09:18;39.27;;;35.17;;
63346;SDS011;49472;49.880;8.650;2024-03-08T00:11:43;43.83;;;35.13;;
63346;SDS011;49472;49.880;8.650;2024-03-08T00:14:08;43.00;;;35.40;;
63346;SDS011;49472;49.880;8.650;2024-03-08T00:16:34;41.00;;;36.67;;
63346;SDS011;49472;49.880;8.650;2024-03-08T00:19:00;41.77;;;36.10;;
63346;SDS011;49472;49.880;8.650;2024-03-08T00:21:25;51.03;;;35.77;;
63346;SDS011;49472;49.880;8.650;2024-03-08T00:23:51;39.13;;;33.60;;
63346;SDS011;49472;49.880;8.650;2024-03-08T00:26:19;41.80;;;36.47;;
63346;SDS011;49472;49.880;8.650;2024-03-08T00:28:44;43.13;;;36.00;;
63346;SDS011;49472;49.880;8.650;2024-03-08T00:31:09;47.83;;;35.93;;
63346;SDS011;49472;49.880;8.650;2024-03-08T00:33:34;53.97;;;37.60;;
63346;SDS011;49472;49.880;8.650;2024-03-08T00:35:59;40.47;;;36.07;;
63346;SDS011;49472;49.880;8.650;2024-03-08T00:38:24;43.20;;;35.57;;
63346;SDS011;49472;49.880;8.650;2024-03-08T00:40:50;45.93;;;36.57;;
63346;SDS011;49472;49.880;8.650;2024-03-08T00:43:15;38.97;;;34.77;;
63346;SDS011;49472;49.880;8.650;2024-03-08T00:45:40;41.53;;;37.13;;
63346;SDS011;49472;49.880;8.650;2024-03-08T00:48:07;39.40;;;34.93;;
63346;SDS011;49472;49.880;8.650;2024-03-08T00:50:32;42.70;;;34.77;;
63346;SDS011;49472;49.880;8.650;2024-03-08T00:52:58;40.57;;;35.47;;
63346;SDS011;49472;49.880;8.650;2024-03-08T00:55:24;40.00;;;35.63;;
63346;SDS011;49472;49.880;8.650;2024-03-08T00:57:49;41.67;;;33.53;;
63346;SDS011;49472;49.880;8.650;2024-03-08T01:00:14;38.50;;;34.30;;
63346;SDS011;49472;49.880;8.650;2024-03-08T01:02:39;40.13;;;35.87;;
63346;SDS011;49472;49.880;8.650;2024-03-08T01:05:05;39.63;;;35.37;;
63346;SDS011;49472;49.880;8.650;2024-03-08T01:07:34;39.17;;;35.07;;
63346;SDS011;49472;49.880;8.650;2024-03-08T01:10:00;47.10;;;36.43;;
63346;SDS011;49472;49.880;8.650;2024-03-08T01:12:25;39.13;;;35.10;;
63346;SDS011;49472;49.880;8.650;2024-03-08T01:14:51;44.13;;;36.87;;
63346;SDS011;49472;49.880;8.650;2024-03-08T01:17:16;41.60;;;35.33;;
63346;SDS011;49472;49.880;8.650;2024-03-08T01:19:42;40.83;;;34.73;;
63346;SDS011;49472;49.880;8.650;2024-03-08T01:22:09;43.07;;;37.03;;
63346;SDS011;49472;49.880;8.650;2024-03-08T01:24:35;42.30;;;35.60;;
63346;SDS011;49472;49.880;8.650;2024-03-08T01:27:00;43.00;;;36.10;;
63346;SDS011;49472;49.880;8.650;2024-03-08T01:29:25;45.30;;;36.20;;
63346;SDS011;49472;49.880;8.650;2024-03-08T01:31:50;42.00;;;35.57;;
63346;SDS011;49472;49.880;8.650;2024-03-08T01:34:17;40.23;;;35.67;;
63346;SDS011;49472;49.880;8.650;2024-03-08T01:36:42;43.70;;;36.87;;
63346;SDS011;49472;49.880;8.650;2024-03-08T01:39:07;40.67;;;36.20;;
63346;SDS011;49472;49.880;8.650;2024-03-08T01:41:33;42.80;;;35.00;;
63346;SDS011;49472;49.880;8.650;2024-03-08T01:43:58;38.27;;;34.00;;
63346;SDS011;49472;49.880;8.650;2024-03-08T01:46:24;43.37;;;37.20;;
63346;SDS011;49472;49.880;8.650;2024-03-08T01:48:49;44.33;;;34.83;;
63346;SDS011;49472;49.880;8.650;2024-03-08T01:51:16;43.73;;;37.47;;
63346;SDS011;49472;49.880;8.650;2024-03-08T01:53:41;40.47;;;34.87;;
63346;SDS011;49472;49.880;8.650;2024-03-08T01:56:08;46.13;;;34.27;;
63346;SDS011;49472;49.880;8.650;2024-03-08T01:58:33;41.80;;;35.23;;
63346;SDS011;49472;49.880;8.650;2024-03-08T02:01:00;42.97;;;35.90;;
63346;SDS011;49472;49.880;8.650;2024-03-08T02:03:29;43.00;;;36.97;;
63346;SDS011;49472;49.880;8.650;2024-03-08T02:05:56;39.67;;;35.00;;
63346;SDS011;49472;49.880;8.650;2024-03-08T02:08:23;44.30;;;37.03;;
63346;SDS011;49472;49.880;8.650;2024-03-08T02:10:49;47.67;;;36.70;;
63346;SDS011;49472;49.880;8.650;2024-03-08T02:13:14;44.77;;;36.67;;
63346;SDS011;49472;49.880;8.650;2024-03-08T02:15:55;44.50;;;37.77;;
63346;SDS011;49472;49.880;8.650;2024-03-08T02:18:21;45.47;;;35.73;;
63346;SDS011;49472;49.880;8.650;2024-03-08T02:20:56;41.73;;;36.53;;
63346;SDS011;49472;49.880;8.650;2024-03-08T02:23:22;43.37;;;35.80;;
63346;SDS011;49472;49.880;8.650;2024-03-08T02:25:48;40.97;;;36.57;;
63346;SDS011;49472;49.880;8.650;2024-03-08T02:28:14;40.23;;;35.70;;
63346;SDS011;49472;49.880;8.650;2024-03-08T02:30:40;42.63;;;36.80;;
63346;SDS011;49472;49.880;8.650;2024-03-08T02:33:05;44.90;;;36.07;;
63346;SDS011;49472;49.880;8.650;2024-03-08T02:35:31;43.87;;;36.40;;
63346;SDS011;49472;49.880;8.650;2024-03-08T02:37:56;43.33;;;36.00;;
63346;SDS011;49472;49.880;8.650;2024-03-08T02:40:21;41.73;;;36.07;;
63346;SDS011;49472;49.880;8.650;2024-03-08T02:42:47;45.30;;;35.87;;
63346;SDS011;49472;49.880;8.650;2024-03-08T02:45:12;43.30;;;35.60;;
63346;SDS011;49472;49.880;8.650;2024-03-08T02:47:38;42.10;;;36.23;;
63346;SDS011;49472;49.880;8.650;2024-03-08T02:50:03;43.47;;;37.27;;
63346;SDS011;49472;49.880;8.650;2024-03-08T02:52:29;44.50;;;37.07;;
63346;SDS011;49472;49.880;8.650;2024-03-08T02:54:54;48.70;;;35.53;;
63346;SDS011;49472;49.880;8.650;2024-03-08T02:57:19;44.23;;;34.70;;
63346;SDS011;49472;49.880;8.650;2024-03-08T02:59:44;43.60;;;37.03;;
63346;SDS011;49472;49.880;8.650;2024-03-08T03:02:10;41.83;;;35.00;;
63346;SDS011;49472;49.880;8.650;2024-03-08T03:04:36;42.30;;;35.93;;
63346;SDS011;49472;49.880;8.650;2024-03-08T03:07:04;48.20;;;36.33;;
63346;SDS011;49472;49.880;8.650;2024-03-08T03:09:30;40.87;;;34.50;;
63346;SDS011;49472;49.880;8.650;2024-03-08T03:11:57;47.03;;;35.90;;
63346;SDS011;49472;49.880;8.650;2024-03-08T03:14:23;43.60;;;35.67;;
63346;SDS011;49472;49.880;8.650;2024-03-08T03:16:48;45.60;;;36.63;;
63346;SDS011;49472;49.880;8.650;2024-03-08T03:19:13;51.87;;;37.80;;
63346;SDS011;49472;49.880;8.650;2024-03-08T03:21:40;43.30;;;37.00;;
63346;SDS011;49472;49.880;8.650;2024-03-08T03:24:08;42.60;;;36.80;;
63346;SDS011;49472;49.880;8.650;2024-03-08T03:26:35;42.30;;;36.03;;
63346;SDS011;49472;49.880;8.650;2024-03-08T03:29:02;40.40;;;34.60;;
63346;SDS011;49472;49.880;8.650;2024-03-08T03:31:28;40.20;;;35.90;;
63346;SDS011;49472;49.880;8.650;2024-03-08T03:33:53;45.60;;;37.93;;
63346;SDS011;49472;49.880;8.650;2024-03-08T03:36:19;46.27;;;37.70;;
63346;SDS011;49472;49.880;8.650;2024-03-08T03:38:45;44.90;;;37.33;;
63346;SDS011;49472;49.880;8.650;2024-03-08T03:41:10;51.13;;;37.83;;
63346;SDS011;49472;49.880;8.650;2024-03-08T03:43:36;47.20;;;35.93;;
63346;SDS011;49472;49.880;8.650;2024-03-08T03:46:05;48.80;;;37.07;;
63346;SDS011;49472;49.880;8.650;2024-03-08T03:48:30;43.00;;;37.17;;
63346;SDS011;49472;49.880;8.650;2024-03-08T03:50:56;45.37;;;37.37;;
63346;SDS011;49472;49.880;8.650;2024-03-08T03:53:22;41.40;;;35.83;;
63346;SDS011;49472;49.880;8.650;2024-03-08T03:55:47;45.13;;;36.77;;
63346;SDS011;49472;49.880;8.650;2024-03-08T03:58:12;47.00;;;36.03;;
63346;SDS011;49472;49.880;8.650;2024-03-08T04:00:37;49.10;;;37.37;;
63346;SDS011;49472;49.880;8.650;2024-03-08T04:03:02;50.77;;;38.20;;
63346;SDS011;49472;49.880;8.650;2024-03-08T04:05:28;46.23;;;37.80;;
63346;SDS011;49472;49.880;8.650;2024-03-08T04:07:53;42.73;;;35.53;;
63346;SDS011;49472;49.880;8.650;2024-03-08T04:10:18;42.00;;;35.87;;
63346;SDS011;49472;49.880;8.650;2024-03-08T04:12:43;42.43;;;35.30;;
63346;SDS011;49472;49.880;8.650;2024-03-08T04:15:08;46.40;;;37.23;;
63346;SDS011;49472;49.880;8.650;2024-03-08T04:17:35;50.10;;;37.47;;
63346;SDS011;49472;49.880;8.650;2024-03-08T04:20:02;44.00;;;37.67;;
63346;SDS011;49472;49.880;8.650;2024-03-08T04:22:32;47.40;;;37.57;;
63346;SDS011;49472;49.880;8.650;2024-03-08T04:24:57;47.77;;;37.20;;
63346;SDS011;49472;49.880;8.650;2024-03-08T04:27:23;44.80;;;37.57;;
63346;SDS011;49472;49.880;8.650;2024-03-08T04:29:48;44.17;;;35.67;;
63346;SDS011;49472;49.880;8.650;2024-03-08T04:32:13;49.17;;;39.47;;
63346;SDS011;49472;49.880;8.650;2024-03-08T04:34:39;46.00;;;37.30;;
63346;SDS011;49472;49.880;8.650;2024-03-08T04:37:04;47.20;;;36.37;;
63346;SDS011;49472;49.880;8.650;2024-03-08T04:39:29;48.83;;;36.30;;
63346;SDS011;49472;49.880;8.650;2024-03-08T04:41:55;45.93;;;36.50;;
63346;SDS011;49472;49.880;8.650;2024-03-08T04:44:22;43.70;;;35.97;;
63346;SDS011;49472;49.880;8.650;2024-03-08T04:46:48;43.53;;;36.37;;
63346;SDS011;49472;49.880;8.650;2024-03-08T04:49:13;44.03;;;36.33;;
63346;SDS011;49472;49.880;8.650;2024-03-08T04:51:38;45.67;;;38.53;;
63346;SDS011;49472;49.880;8.650;2024-03-08T04:54:03;47.43;;;37.53;;
63346;SDS011;49472;49.880;8.650;2024-03-08T04:56:29;41.53;;;35.60;;
63346;SDS011;49472;49.880;8.650;2024-03-08T04:58:55;48.43;;;36.77;;
63346;SDS011;49472;49.880;8.650;2024-03-08T05:01:20;52.00;;;37.33;;
63346;SDS011;49472;49.880;8.650;2024-03-08T05:03:45;51.60;;;37.57;;
63346;SDS011;49472;49.880;8.650;2024-03-08T05:06:12;45.10;;;37.30;;
63346;SDS011;49472;49.880;8.650;2024-03-08T05:08:37;47.70;;;38.50;;
63346;SDS011;49472;49.880;8.650;2024-03-08T05:11:03;45.87;;;38.17;;
63346;SDS011;49472;49.880;8.650;2024-03-08T05:13:30;43.60;;;35.10;;
63346;SDS011;49472;49.880;8.650;2024-03-08T05:15:55;50.13;;;37.63;;
63346;SDS011;49472;49.880;8.650;2024-03-08T05:18:23;49.90;;;38.33;;
63346;SDS011;49472;49.880;8.650;2024-03-08T05:20:48;48.03;;;37.10;;
63346;SDS011;49472;49.880;8.650;2024-03-08T05:23:13;43.20;;;35.43;;
63346;SDS011;49472;49.880;8.650;2024-03-08T05:25:38;41.87;;;36.87;;
63346;SDS011;49472;49.880;8.650;2024-03-08T05:28:04;53.23;;;38.20;;
63346;SDS011;49472;49.880;8.650;2024-03-08T05:30:29;44.90;;;36.60;;
63346;SDS011;49472;49.880;8.650;2024-03-08T05:32:54;48.43;;;35.07;;
63346;SDS011;49472;49.880;8.650;2024-03-08T05:35:19;43.30;;;36.67;;
63346;SDS011;49472;49.880;8.650;2024-03-08T05:37:45;47.70;;;37.10;;
63346;SDS011;49472;49.880;8.650;2024-03-08T05:40:10;49.37;;;38.20;;
63346;SDS011;49472;49.880;8.650;2024-03-08T05:42:36;46.70;;;38.77;;
63346;SDS011;49472;49.880;8.650;2024-03-08T05:45:01;43.27;;;37.07;;
63346;SDS011;49472;49.880;8.650;2024-03-08T05:47:27;49.60;;;38.03;;
63346;SDS011;49472;49.880;8.650;2024-03-08T05:49:52;46.83;;;38.77;;
63346;SDS011;49472;49.880;8.650;2024-03-08T05:52:18;50.57;;;37.20;;
63346;SDS011;49472;49.880;8.650;2024-03-08T05:54:43;45.07;;;37.67;;
63346;SDS011;49472;49.880;8.650;2024-03-08T05:57:10;49.37;;;38.50;;
63346;SDS011;49472;49.880;8.650;2024-03-08T05:59:35;46.30;;;37.00;;
63346;SDS011;49472;49.880;8.650;2024-03-08T06:02:01;47.87;;;37.67;;
63346;SDS011;49472;49.880;8.650;2024-03-08T06:04:26;46.13;;;37.57;;
63346;SDS011;49472;49.880;8.650;2024-03-08T06:06:52;46.13;;;36.87;;
63346;SDS011;49472;49.880;8.650;2024-03-08T06:09:20;50.40;;;38.93;;
63346;SDS011;49472;49.880;8.650;2024-03-08T06:11:48;49.10;;;37.23;;
63346;SDS011;49472;49.880;8.650;2024-03-08T06:14:13;49.10;;;37.70;;
63346;SDS011;49472;49.880;8.650;2024-03-08T06:16:38;48.50;;;37.67;;
63346;SDS011;49472;49.880;8.650;2024-03-08T06:19:03;55.23;;;38.10;;
63346;SDS011;49472;49.880;8.650;2024-03-08T06:21:28;52.70;;;37.70;;
63346;SDS011;49472;49.880;8.650;2024-03-08T06:23:54;45.37;;;38.10;;
63346;SDS011;49472;49.880;8.650;2024-03-08T06:26:22;46.67;;;36.37;;
63346;SDS011;49472;49.880;8.650;2024-03-08T06:28:48;46.50;;;37.27;;
63346;SDS011;49472;49.880;8.650;2024-03-08T06:31:13;52.03;;;39.33;;
63346;SDS011;49472;49.880;8.650;2024-03-08T06:33:39;48.00;;;37.10;;
63346;SDS011;49472;49.880;8.650;2024-03-08T06:36:05;51.27;;;38.50;;
63346;SDS011;49472;49.880;8.650;2024-03-08T06:38:30;49.20;;;37.87;;
63346;SDS011;49472;49.880;8.650;2024-03-08T06:40:55;46.53;;;36.53;;
63346;SDS011;49472;49.880;8.650;2024-03-08T06:43:21;58.17;;;39.20;;
63346;SDS011;49472;49.880;8.650;2024-03-08T06:45:46;47.57;;;38.57;;
63346;SDS011;49472;49.880;8.650;2024-03-08T06:48:14;51.50;;;39.37;;
63346;SDS011;49472;49.880;8.650;2024-03-08T06:50:39;52.00;;;37.40;;
63346;SDS011;49472;49.880;8.650;2024-03-08T06:53:04;47.90;;;38.20;;
63346;SDS011;49472;49.880;8.650;2024-03-08T06:55:29;45.60;;;37.17;;
63346;SDS011;49472;49.880;8.650;2024-03-08T06:57:55;44.53;;;38.27;;
63346;SDS011;49472;49.880;8.650;2024-03-08T07:00:20;54.17;;;43.03;;
63346;SDS011;49472;49.880;8.650;2024-03-08T07:02:45;58.40;;;40.83;;
63346;SDS011;49472;49.880;8.650;2024-03-08T07:05:11;44.33;;;37.27;;
63346;SDS011;49472;49.880;8.650;2024-03-08T07:07:36;48.07;;;39.20;;
63346;SDS011;49472;49.880;8.650;2024-03-08T07:10:02;54.40;;;39.00;;
63346;SDS011;49472;49.880;8.650;2024-03-08T07:12:27;53.00;;;41.40;;
63346;SDS011;49472;49.880;8.650;2024-03-08T07:14:52;54.97;;;40.73;;
63346;SDS011;49472;49.880;8.650;2024-03-08T07:17:18;51.70;;;40.93;;
63346;SDS011;49472;49.880;8.650;2024-03-08T07:19:43;50.20;;;39.53;;
63346;SDS011;49472;49.880;8.650;2024-03-08T07:22:08;55.10;;;40.40;;
63346;SDS011;49472;49.880;8.650;2024-03-08T07:24:36;52.50;;;38.93;;
63346;SDS011;49472;49.880;8.650;2024-03-08T07:27:01;54.23;;;39.63;;
63346;SDS011;49472;49.880;8.650;2024-03-08T07:29:27;54.17;;;41.67;;
63346;SDS011;49472;49.880;8.650;2024-03-08T07:31:53;53.43;;;40.77;;
63346;SDS011;49472;49.880;8.650;2024-03-08T07:34:37;54.50;;;39.93;;
63346;SDS011;49472;49.880;8.650;2024-03-08T07:37:02;51.33;;;39.23;;
63346;SDS011;49472;49.880;8.650;2024-03-08T07:39:29;52.23;;;38.20;;
63346;SDS011;49472;49.880;8.650;2024-03-08T07:41:54;45.07;;;38.10;;
63346;SDS011;49472;49.880;8.650;2024-03-08T07:44:19;45.77;;;38.20;;
63346;SDS011;49472;49.880;8.650;2024-03-08T07:46:44;47.10;;;38.97;;
63346;SDS011;49472;49.880;8.650;2024-03-08T07:49:09;45.93;;;38.63;;
63346;SDS011;49472;49.880;8.650;2024-03-08T07:51:36;45.70;;;37.20;;
63346;SDS011;49472;49.880;8.650;2024-03-08T07:54:02;48.67;;;38.70;;
63346;SDS011;49472;49.880;8.650;2024-03-08T07:56:29;48.83;;;39.23;;
63346;SDS011;49472;49.880;8.650;2024-03-08T07:58:54;49.43;;;39.20;;
63346;SDS011;49472;49.880;8.650;2024-03-08T08:01:19;54.43;;;40.10;;
63346;SDS011;49472;49.880;8.650;2024-03-08T08:03:45;51.40;;;41.10;;
63346;SDS011;49472;49.880;8.650;2024-03-08T08:06:10;49.30;;;37.43;;
63346;SDS011;49472;49.880;8.650;2024-03-08T08:08:41;43.80;;;36.37;;
63346;SDS011;49472;49.880;8.650;2024-03-08T08:11:06;57.23;;;39.77;;
63346;SDS011;49472;49.880;8.650;2024-03-08T08:13:33;48.57;;;39.40;;
63346;SDS011;49472;49.880;8.650;2024-03-08T08:15:59;47.00;;;39.00;;
63346;SDS011;49472;49.880;8.650;2024-03-08T08:18:24;48.63;;;39.10;;
63346;SDS011;49472;49.880;8.650;2024-03-08T08:20:50;51.30;;;40.63;;
63346;SDS011;49472;49.880;8.650;2024-03-08T08:23:15;48.77;;;39.43;;
63346;SDS011;49472;49.880;8.650;2024-03-08T08:25:41;50.00;;;40.47;;
63346;SDS011;49472;49.880;8.650;2024-03-08T08:28:06;44.83;;;37.77;;
63346;SDS011;49472;49.880;8.650;2024-03-08T08:30:31;48.37;;;38.17;;
63346;SDS011;49472;49.880;8.650;2024-03-08T08:32:57;49.17;;;41.23;;
63346;SDS011;49472;49.880;8.650;2024-03-08T08:35:25;52.13;;;39.07;;
63346;SDS011;49472;49.880;8.650;2024-03-08T08:37:50;46.07;;;39.97;;
63346;SDS011;49472;49.880;8.650;2024-03-08T08:40:17;47.40;;;39.30;;
63346;SDS011;49472;49.880;8.650;2024-03-08T08:42:43;58.37;;;40.23;;
63346;SDS011;49472;49.880;8.650;2024-03-08T08:45:08;43.87;;;37.50;;
63346;SDS011;49472;49.880;8.650;2024-03-08T08:47:35;45.30;;;39.00;;
63346;SDS011;49472;49.880;8.650;2024-03-08T08:50:00;45.23;;;38.43;;
63346;SDS011;49472;49.880;8.650;2024-03-08T08:52:25;52.10;;;38.83;;
63346;SDS011;49472;49.880;8.650;2024-03-08T08:54:51;44.13;;;37.70;;
63346;SDS011;49472;49.880;8.650;2024-03-08T08:57:16;50.90;;;38.50;;
63346;SDS011;49472;49.880;8.650;2024-03-08T08:59:41;45.13;;;36.03;;
63346;SDS011;49472;49.880;8.650;2024-03-08T09:02:06;41.30;;;36.23;;
63346;SDS011;49472;49.880;8.650;2024-03-08T09:04:33;45.33;;;38.10;;
63346;SDS011;49472;49.880;8.650;2024-03-08T09:07:00;67.47;;;38.37;;
63346;SDS011;49472;49.880;8.650;2024-03-08T09:09:27;44.30;;;36.90;;
63346;SDS011;49472;49.880;8.650;2024-03-08T09:11:52;43.13;;;37.07;;
63346;SDS011;49472;49.880;8.650;2024-03-08T09:14:19;40.87;;;36.67;;
63346;SDS011;49472;49.880;8.650;2024-03-08T09:16:45;51.37;;;37.40;;
63346;SDS011;49472;49.880;8.650;2024-03-08T09:19:12;43.20;;;37.67;;
63346;SDS011;49472;49.880;8.650;2024-03-08T09:21:37;48.00;;;37.93;;
63346;SDS011;49472;49.880;8.650;2024-03-08T09:24:02;40.13;;;35.00;;
63346;SDS011;49472;49.880;8.650;2024-03-08T09:26:28;45.30;;;36.53;;
63346;SDS011;49472;49.880;8.650;2024-03-08T09:28:53;45.40;;;37.57;;
63346;SDS011;49472;49.880;8.650;2024-03-08T09:31:20;40.93;;;35.90;;
63346;SDS011;49472;49.880;8.650;2024-03-08T09:33:45;39.00;;;34.87;;
63346;SDS011;49472;49.880;8.650;2024-03-08T09:36:10;42.83;;;36.30;;
63346;SDS011;49472;49.880;8.650;2024-03-08T09:38:35;39.80;;;35.43;;
63346;SDS011;49472;49.880;8.650;2024-03-08T09:41:01;41.73;;;37.30;;
63346;SDS011;49472;49.880;8.650;2024-03-08T09:43:29;39.80;;;35.60;;
63346;SDS011;49472;49.880;8.650;2024-03-08T09:45:55;40.23;;;35.83;;
63346;SDS011;49472;49.880;8.650;2024-03-08T09:48:22;41.30;;;36.77;;
63346;SDS011;49472;49.880;8.650;2024-03-08T09:50:47;41.43;;;36.30;;
63346;SDS011;49472;49.880;8.650;2024-03-08T09:53:13;44.90;;;37.70;;
63346;SDS011;49472;49.880;8.650;2024-03-08T09:55:38;44.40;;;38.57;;
63346;SDS011;49472;49.880;8.650;2024-03-08T09:58:07;41.13;;;36.67;;
63346;SDS011;49472;49.880;8.650;2024-03-08T10:00:55;40.90;;;35.80;;
63346;SDS011;49472;49.880;8.650;2024-03-08T10:03:22;43.20;;;36.30;;
63346;SDS011;49472;49.880;8.650;2024-03-08T10:05:48;42.67;;;37.50;;
63346;SDS011;49472;49.880;8.650;2024-03-08T10:08:13;41.73;;;36.53;;
63346;SDS011;49472;49.880;8.650;2024-03-08T10:10:38;42.73;;;36.13;;
63346;SDS011;49472;49.880;8.650;2024-03-08T10:13:07;41.27;;;36.60;;
63346;SDS011;49472;49.880;8.650;2024-03-08T10:15:32;41.70;;;36.30;;
63346;SDS011;49472;49.880;8.650;2024-03-08T10:17:58;43.50;;;37.27;;
63346;SDS011;49472;49.880;8.650;2024-03-08T10:20:23;44.27;;;38.00;;
63346;SDS011;49472;49.880;8.650;2024-03-08T10:22:49;43.93;;;36.83;;
63346;SDS011;49472;49.880;8.650;2024-03-08T10:25:14;40.10;;;35.93;;
63346;SDS011;49472;49.880;8.650;2024-03-08T10:27:39;41.03;;;36.57;;
63346;SDS011;49472;49.880;8.650;2024-03-08T10:30:06;42.53;;;37.00;;
63346;SDS011;49472;49.880;8.650;2024-03-08T10:32:31;40.30;;;36.00;;
63346;SDS011;49472;49.880;8.650;2024-03-08T10:34:56;43.53;;;37.67;;
63346;SDS011;49472;49.880;8.650;2024-03-08T10:37:26;41.87;;;36.80;;
63346;SDS011;49472;49.880;8.650;2024-03-08T10:40:01;42.03;;;37.53;;
63346;SDS011;49472;49.880;8.650;2024-03-08T10:42:35;42.00;;;36.60;;
63346;SDS011;49472;49.880;8.650;2024-03-08T10:47:31;41.73;;;37.23;;
63346;SDS011;49472;49.880;8.650;2024-03-08T10:50:19;40.83;;;36.37;;
63346;SDS011;49472;49.880;8.650;2024-03-08T10:52:51;41.50;;;35.67;;
63346;SDS011;49472;49.880;8.650;2024-03-08T10:55:19;40.37;;;36.10;;
63346;SDS011;49472;49.880;8.650;2024-03-08T10:57:47;41.00;;;36.47;;
63346;SDS011;49472;49.880;8.650;2024-03-08T11:00:13;47.27;;;35.93;;
63346;SDS011;49472;49.880;8.650;2024-03-08T11:02:39;41.67;;;37.17;;
63346;SDS011;49472;49.880;8.650;2024-03-08T11:05:04;45.50;;;38.73;;
63346;SDS011;49472;49.880;8.650;2024-03-08T11:07:33;42.13;;;37.17;;
63346;SDS011;49472;49.880;8.650;2024-03-08T11:10:02;47.07;;;37.50;;
63346;SDS011;49472;49.880;8.650;2024-03-08T11:12:29;41.07;;;36.87;;
63346;SDS011;49472;49.880;8.650;2024-03-08T11:15:11;40.63;;;36.20;;
63346;SDS011;49472;49.880;8.650;2024-03-08T11:20:04;46.43;;;38.00;;
63346;SDS011;49472;49.880;8.650;2024-03-08T11:22:33;44.60;;;37.60;;
63346;SDS011;49472;49.880;8.650;2024-03-08T11:25:08;41.10;;;36.70;;
63346;SDS011;49472;49.880;8.650;2024-03-08T11:27:35;41.67;;;37.40;;
63346;SDS011;49472;49.880;8.650;2024-03-08T11:30:02;41.47;;;36.90;;
63346;SDS011;49472;49.880;8.650;2024-03-08T11:32:36;40.53;;;36.23;;
63346;SDS011;49472;49.880;8.650;2024-03-08T11:35:05;38.93;;;34.83;;
63346;SDS011;49472;49.880;8.650;2024-03-08T11:37:33;39.73;;;35.47;;
63346;SDS011;49472;49.880;8.650;2024-03-08T11:39:59;39.43;;;35.23;;
63346;SDS011;49472;49.880;8.650;2024-03-08T11:42:26;38.80;;;34.83;;
63346;SDS011;49472;49.880;8.650;2024-03-08T11:44:51;39.87;;;35.70;;
63346;SDS011;49472;49.880;8.650;2024-03-08T11:47:17;40.07;;;35.93;;
63346;SDS011;49472;49.880;8.650;2024-03-08T11:49:44;39.27;;;35.30;;
63346;SDS011;49472;49.880;8.650;2024-03-08T11:52:18;40.93;;;36.20;;
63346;SDS011;49472;49.880;8.650;2024-03-08T11:54:53;38.60;;;34.70;;
63346;SDS011;49472;49.880;8.650;2024-03-08T11:57:19;38.83;;;34.80;;
63346;SDS011;49472;49.880;8.650;2024-03-08T11:59:51;40.50;;;36.50;;
63346;SDS011;49472;49.880;8.650;2024-03-08T12:02:16;38.10;;;34.20;;
63346;SDS011;49472;49.880;8.650;2024-03-08T12:04:41;38.13;;;34.13;;
63346;SDS011;49472;49.880;8.650;2024-03-08T12:07:09;39.37;;;35.17;;
63346;SDS011;49472;49.880;8.650;2024-03-08T12:09:37;39.57;;;35.43;;
63346;SDS011;49472;49.880;8.650;2024-03-08T12:12:03;39.43;;;35.53;;
63346;SDS011;49472;49.880;8.650;2024-03-08T12:14:32;42.27;;;37.67;;
63346;SDS011;49472;49.880;8.650;2024-03-08T12:16:57;43.30;;;37.23;;
63346;SDS011;49472;49.880;8.650;2024-03-08T12:19:23;37.70;;;33.90;;
63346;SDS011;49472;49.880;8.650;2024-03-08T12:21:48;45.67;;;35.87;;
63346;SDS011;49472;49.880;8.650;2024-03-08T12:24:14;39.47;;;35.40;;
63346;SDS011;49472;49.880;8.650;2024-03-08T12:26:41;38.33;;;34.47;;
63346;SDS011;49472;49.880;8.650;2024-03-08T12:29:16;39.47;;;35.40;;
63346;SDS011;49472;49.880;8.650;2024-03-08T12:31:42;40.47;;;36.27;;
63346;SDS011;49472;49.880;8.650;2024-03-08T12:34:08;40.40;;;35.90;;
63346;SDS011;49472;49.880;8.650;2024-03-08T12:36:35;38.20;;;34.07;;
63346;SDS011;49472;49.880;8.650;2024-03-08T12:39:01;40.40;;;35.43;;
63346;SDS011;49472;49.880;8.650;2024-03-08T12:41:28;38.80;;;34.97;;
63346;SDS011;49472;49.880;8.650;2024-03-08T12:43:54;39.57;;;35.53;;
63346;SDS011;49472;49.880;8.650;2024-03-08T12:46:19;39.80;;;35.50;;
63346;SDS011;49472;49.880;8.650;2024-03-08T12:48:51;41.30;;;36.97;;
63346;SDS011;49472;49.880;8.650;2024-03-08T12:51:18;40.90;;;34.90;;
63346;SDS011;49472;49.880;8.650;2024-03-08T12:53:44;41.63;;;35.83;;
63346;SDS011;49472;49.880;8.650;2024-03-08T12:56:10;39.77;;;34.87;;
63346;SDS011;49472;49.880;8.650;2024-03-08T12:58:36;40.20;;;36.10;;
63346;SDS011;49472;49.880;8.650;2024-03-08T13:01:02;38.53;;;34.53;;
63346;SDS011;49472;49.880;8.650;2024-03-08T13:03:29;40.17;;;36.27;;
63346;SDS011;49472;49.880;8.650;2024-03-08T13:05:55;38.73;;;34.60;;
63346;SDS011;49472;49.880;8.650;2024-03-08T13:08:22;38.00;;;34.20;;
63346;SDS011;49472;49.880;8.650;2024-03-08T13:10:49;40.00;;;36.10;;
63346;SDS011;49472;49.880;8.650;2024-03-08T13:13:16;38.83;;;34.85;;
63346;SDS011;49472;49.880;8.650;2024-03-08T13:15:42;43.95;;;37.58;;
63346;SDS011;49472;49.880;8.650;2024-03-08T13:18:07;38.80;;;35.13;;
63346;SDS011;49472;49.880;8.650;2024-03-08T13:20:34;38.15;;;34.40;;
63346;SDS011;49472;49.880;8.650;2024-03-08T13:23:02;37.17;;;33.60;;
63346;SDS011;49472;49.880;8.650;2024-03-08T13:25:27;38.63;;;34.83;;
63346;SDS011;49472;49.880;8.650;2024-03-08T13:27:53;39.22;;;35.33;;
63346;SDS011;49472;49.880;8.650;2024-03-08T13:30:21;37.58;;;33.83;;
63346;SDS011;49472;49.880;8.650;2024-03-08T13:32:49;39.63;;;35.78;;
63346;SDS011;49472;49.880;8.650;2024-03-08T13:35:16;37.58;;;33.65;;
63346;SDS011;49472;49.880;8.650;2024-03-08T13:37:49;38.80;;;34.60;;
63346;SDS011;49472;49.880;8.650;2024-03-08T13:40:14;38.90;;;34.85;;
63346;SDS011;49472;49.880;8.650;2024-03-08T13:42:42;43.80;;;33.83;;
63346;SDS011;49472;49.880;8.650;2024-03-08T13:45:08;37.50;;;33.90;;
63346;SDS011;49472;49.880;8.650;2024-03-08T13:47:35;38.95;;;35.25;;
63346;SDS011;49472;49.880;8.650;2024-03-08T13:50:01;37.67;;;34.08;;
63346;SDS011;49472;49.880;8.650;2024-03-08T13:52:26;42.97;;;34.58;;
63346;SDS011;49472;49.880;8.650;2024-03-08T13:54:54;37.67;;;34.17;;
63346;SDS011;49472;49.880;8.650;2024-03-08T13:57:19;39.08;;;35.20;;
63346;SDS011;49472;49.880;8.650;2024-03-08T13:59:44;36.53;;;32.90;;
63346;SDS011;49472;49.880;8.650;2024-03-08T14:02:10;34.75;;;31.50;;
63346;SDS011;49472;49.880;8.650;2024-03-08T14:04:38;38.47;;;34.65;;
63346;SDS011;49472;49.880;8.650;2024-03-08T14:07:04;37.20;;;33.60;;
63346;SDS011;49472;49.880;8.650;2024-03-08T14:09:29;42.80;;;33.60;;
63346;SDS011;49472;49.880;8.650;2024-03-08T14:11:56;36.72;;;33.00;;
63346;SDS011;49472;49.880;8.650;2024-03-08T14:14:21;35.70;;;32.38;;
63346;SDS011;49472;49.880;8.650;2024-03-08T14:16:48;35.60;;;31.95;;
63346;SDS011;49472;49.880;8.650;2024-03-08T14:19:13;36.33;;;32.90;;
63346;SDS011;49472;49.880;8.650;2024-03-08T14:21:40;33.72;;;30.67;;